^^
Meteo Knjazevac Station Historical Data
Daily Summary for May 09, 2021 Units:  Both    English   Metric
Daily Weekly Monthly Yearly Custom
  High: Low: Average:
Temperature: 41.9 °F /  5.5 °C 32.2 °F /  0.1 °C 34.5 °F /  1.4 °C
Dew Point: 34.6 °F /  1.4 °C 29 °F /  -1.7 °C 30.8 °F /  -0.7 °C
Humidity: 90% 75% 86%
Wind Speed: 3mph /  4.8km/h - 1.2mph /  1.9km/h
Wind Gust: 6mph /  9.7km/h - -
Wind- - West
Pressure: 30.31 in /  1026.3 hPa 30.26 in /  1024.6 hPa -
Precipitation: 0.00 in /  0 mm    
Historical Graphs
 
 
Tabular Data for May 09, 2021
Time Temperature Dew Point Pressure Wind Wind Speed Wind Gust Humidity Rainfall Rate (Hourly) solar Conditions
00:00 41.9 °F /  5.5 °C 34.6 °F /  1.4 °C 30.26in /  1024.6hPa SW 2mph /  3.2km/h 4mph /  6.4km/h 75% 0.00in /  0mm 0 W/m2
01:40 36.9 °F /  2.7 °C 31.6 °F /  -0.2 °C 30.27in /  1024.9hPa West 2mph /  3.2km/h 5mph /  8km/h 81% 0.00in /  0mm 0 W/m2
01:50 36.5 °F /  2.5 °C 31.8 °F /  -0.1 °C 30.27in /  1024.9hPa WNW 3mph /  4.8km/h 6mph /  9.7km/h 83% 0.00in /  0mm 0 W/m2
02:00 36.6 °F /  2.6 °C 32.3 °F /  0.2 °C 30.27in /  1024.9hPa WNW 2mph /  3.2km/h 6mph /  9.7km/h 84% 0.00in /  0mm 0 W/m2
02:10 36.5 °F /  2.5 °C 31.8 °F /  -0.1 °C 30.27in /  1024.9hPa WSW 1mph /  1.6km/h 3mph /  4.8km/h 83% 0.00in /  0mm 0 W/m2
02:20 36.3 °F /  2.4 °C 31.9 °F /  -0.1 °C 30.27in /  1024.9hPa West 2mph /  3.2km/h 4mph /  6.4km/h 84% 0.00in /  0mm 0 W/m2
02:30 36.1 °F /  2.3 °C 31.8 °F /  -0.1 °C 30.27in /  1024.9hPa Calm   4mph /  6.4km/h 84% 0.00in /  0mm 0 W/m2
02:40 36 °F /  2.2 °C 31.6 °F /  -0.2 °C 30.27in /  1024.9hPa WNW 2mph /  3.2km/h 3mph /  4.8km/h 84% 0.00in /  0mm 0 W/m2
02:50 35.6 °F /  2 °C 31.2 °F /  -0.4 °C 30.27in /  1024.9hPa West 1mph /  1.6km/h 3mph /  4.8km/h 84% 0.00in /  0mm 0 W/m2
03:00 35.2 °F /  1.8 °C 30.9 °F /  -0.6 °C 30.27in /  1024.9hPa Calm   4mph /  6.4km/h 84% 0.00in /  0mm 0 W/m2
03:10 35.1 °F /  1.7 °C 30.7 °F /  -0.7 °C 30.27in /  1024.9hPa West 2mph /  3.2km/h 3mph /  4.8km/h 84% 0.00in /  0mm 0 W/m2
04:20 33.6 °F /  0.9 °C 29.9 °F /  -1.2 °C 30.28in /  1025.3hPa WNW 1mph /  1.6km/h 2mph /  3.2km/h 86% 0.00in /  0mm 0 W/m2
04:30 33.4 °F /  0.8 °C 29.7 °F /  -1.3 °C 30.28in /  1025.3hPa WNW 1mph /  1.6km/h 2mph /  3.2km/h 86% 0.00in /  0mm 0 W/m2
04:40 32.9 °F /  0.5 °C 29.2 °F /  -1.6 °C 30.28in /  1025.3hPa West 1mph /  1.6km/h 2mph /  3.2km/h 86% 0.00in /  0mm 0 W/m2
04:50 32.7 °F /  0.4 °C 29.6 °F /  -1.3 °C 30.28in /  1025.3hPa Calm   2mph /  3.2km/h 88% 0.00in /  0mm 0 W/m2
05:00 32.7 °F /  0.4 °C 29.6 °F /  -1.3 °C 30.28in /  1025.3hPa WNW 2mph /  3.2km/h 3mph /  4.8km/h 88% 0.00in /  0mm 0 W/m2
05:10 32.7 °F /  0.4 °C 29.6 °F /  -1.3 °C 30.28in /  1025.3hPa WNW 1mph /  1.6km/h 3mph /  4.8km/h 88% 0.00in /  0mm 0 W/m2
05:20 32.9 °F /  0.5 °C 30 °F /  -1.1 °C 30.29in /  1025.6hPa NW 1mph /  1.6km/h 2mph /  3.2km/h 89% 0.00in /  0mm 7 W/m2
05:30 32.5 °F /  0.3 °C 29.4 °F /  -1.4 °C 30.29in /  1025.6hPa WNW 2mph /  3.2km/h 3mph /  4.8km/h 88% 0.00in /  0mm 14 W/m2
05:40 32.4 °F /  0.2 °C 29.2 °F /  -1.6 °C 30.29in /  1025.6hPa West 1mph /  1.6km/h 3mph /  4.8km/h 88% 0.00in /  0mm 20 W/m2
05:50 32.2 °F /  0.1 °C 29 °F /  -1.7 °C 30.30in /  1026hPa WNW 2mph /  3.2km/h 3mph /  4.8km/h 88% 0.00in /  0mm 30 W/m2
06:00 32.2 °F /  0.1 °C 29.3 °F /  -1.5 °C 30.30in /  1026hPa WNW 1mph /  1.6km/h 3mph /  4.8km/h 89% 0.00in /  0mm 60 W/m2
06:10 32.2 °F /  0.1 °C 29.3 °F /  -1.5 °C 30.30in /  1026hPa WNW 1mph /  1.6km/h 2mph /  3.2km/h 89% 0.00in /  0mm 42 W/m2
06:20 32.4 °F /  0.2 °C 29.5 °F /  -1.4 °C 30.30in /  1026hPa Calm   2mph /  3.2km/h 89% 0.00in /  0mm 100 W/m2
06:30 32.5 °F /  0.3 °C 29.7 °F /  -1.3 °C 30.30in /  1026hPa Calm   2mph /  3.2km/h 89% 0.00in /  0mm 134 W/m2
06:40 32.9 °F /  0.5 °C 30 °F /  -1.1 °C 30.30in /  1026hPa Calm   2mph /  3.2km/h 89% 0.00in /  0mm 161 W/m2
06:50 33.4 °F /  0.8 °C 30.8 °F /  -0.7 °C 30.31in /  1026.3hPa Calm   1mph /  1.6km/h 90% 0.00in /  0mm 196 W/m2
07:00 34.2 °F /  1.2 °C 31.5 °F /  -0.3 °C 30.31in /  1026.3hPa West 2mph /  3.2km/h 4mph /  6.4km/h 90% 0.00in /  0mm 222 W/m2
07:10 35.2 °F /  1.8 °C 32.6 °F /  0.3 °C 30.31in /  1026.3hPa WNW 1mph /  1.6km/h 5mph /  8km/h 90% 0.00in /  0mm 252 W/m2
07:20 36.2 °F /  2.3 °C 33.3 °F /  0.7 °C 30.31in /  1026.3hPa WNW 3mph /  4.8km/h 5mph /  8km/h 89% 0.00in /  0mm 293 W/m2
07:30 37.2 °F /  2.9 °C 34.3 °F /  1.3 °C 30.31in /  1026.3hPa WNW 1mph /  1.6km/h 5mph /  8km/h 89% 0.00in /  0mm 326 W/m2
Knjazevac, Serbia
Compliments of Weather Underground - 2 mb